createdAt,value
2018-04-22T00:01:49.364Z,12.63
2018-04-22T00:04:16.848Z,12.10
2018-04-22T00:06:44.329Z,11.97
2018-04-22T00:09:13.104Z,11.80
2018-04-22T00:11:41.331Z,11.90
2018-04-22T00:14:08.841Z,11.23
2018-04-22T00:16:37.081Z,12.07
2018-04-22T00:19:04.576Z,11.23
2018-04-22T00:21:32.833Z,12.63
2018-04-22T00:24:00.338Z,11.93
2018-04-22T00:26:27.842Z,12.87
2018-04-22T00:28:55.338Z,12.30
2018-04-22T00:31:22.812Z,11.87
2018-04-22T00:33:50.314Z,12.90
2018-04-22T00:36:17.796Z,12.43
2018-04-22T00:38:46.039Z,12.43
2018-04-22T00:41:13.659Z,12.70
2018-04-22T00:43:41.163Z,12.30
2018-04-22T00:46:09.400Z,13.90
2018-04-22T00:48:36.917Z,13.50
2018-04-22T00:51:05.170Z,13.53
2018-04-22T00:56:31.811Z,13.30
2018-04-22T00:58:59.305Z,13.27
2018-04-22T01:01:27.594Z,13.03
2018-04-22T01:03:55.831Z,13.63
2018-04-22T01:06:23.317Z,13.17
2018-04-22T01:08:51.579Z,13.10
2018-04-22T01:11:19.048Z,12.60
2018-04-22T01:13:47.340Z,12.63
2018-04-22T01:16:14.815Z,12.47
2018-04-22T01:18:42.299Z,12.53
2018-04-22T01:21:09.756Z,12.70
2018-04-22T01:23:37.244Z,12.83
2018-04-22T01:26:04.714Z,13.33
2018-04-22T01:28:32.310Z,13.37
2018-04-22T01:31:00.580Z,14.07
2018-04-22T01:33:28.059Z,13.63
2018-04-22T01:35:55.605Z,13.53
2018-04-22T01:38:23.838Z,14.30
2018-04-22T01:40:51.440Z,13.50
2018-04-22T01:43:19.682Z,14.10
2018-04-22T01:45:47.172Z,14.10
2018-04-22T01:48:15.487Z,14.63
2018-04-22T01:50:43.004Z,14.83
2018-04-22T01:53:11.245Z,14.33
2018-04-22T01:55:38.842Z,14.03
2018-04-22T01:58:07.079Z,14.20
2018-04-22T02:00:34.607Z,14.20
2018-04-22T02:03:02.088Z,13.97
2018-04-22T02:05:29.582Z,14.07
2018-04-22T02:07:57.079Z,14.50
2018-04-22T02:10:24.646Z,14.00
2018-04-22T02:12:52.112Z,14.13
2018-04-22T02:15:19.710Z,14.07
2018-04-22T02:17:47.948Z,14.67
2018-04-22T02:20:15.444Z,14.70
2018-04-22T02:22:43.679Z,15.63
2018-04-22T02:25:11.191Z,15.83
2018-04-22T02:27:38.667Z,16.13
2018-04-22T02:30:06.191Z,15.47
2018-04-22T02:32:34.429Z,15.83
2018-04-22T02:35:01.925Z,16.00
2018-04-22T02:37:30.167Z,15.77
2018-04-22T02:39:57.668Z,15.23
2018-04-22T02:42:25.203Z,15.97
2018-04-22T02:44:52.822Z,16.27
2018-04-22T02:47:20.339Z,16.00
2018-04-22T02:49:48.590Z,15.07
2018-04-22T02:52:16.094Z,14.70
2018-04-22T02:54:43.578Z,15.40
2018-04-22T02:57:11.046Z,15.13
2018-04-22T02:59:38.538Z,15.13
2018-04-22T03:02:06.777Z,16.23
2018-04-22T03:04:34.264Z,14.73
2018-04-22T03:07:02.580Z,16.53
2018-04-22T03:09:30.099Z,15.77
2018-04-22T03:11:58.338Z,15.53
2018-04-22T03:14:25.822Z,15.87
2018-04-22T03:16:53.356Z,15.57
2018-04-22T03:19:20.850Z,15.53
2018-04-22T03:21:49.157Z,15.20
2018-04-22T03:24:16.700Z,15.60
2018-04-22T03:26:44.938Z,15.70
2018-04-22T03:29:12.466Z,16.63
2018-04-22T03:31:40.007Z,16.03
2018-04-22T03:34:07.507Z,16.70
2018-04-22T03:36:35.025Z,16.07
2018-04-22T03:39:02.565Z,15.73
2018-04-22T03:41:30.838Z,16.23
2018-04-22T03:43:59.072Z,16.63
2018-04-22T03:46:26.592Z,19.27
2018-04-22T03:48:54.072Z,18.13
2018-04-22T03:51:21.567Z,18.33
2018-04-22T03:53:49.047Z,18.10
2018-04-22T03:56:16.532Z,17.33
2018-04-22T03:58:44.002Z,17.70
2018-04-22T04:01:11.482Z,17.70
2018-04-22T04:03:40.449Z,17.63
2018-04-22T04:06:07.983Z,17.57
2018-04-22T04:08:35.442Z,16.80
2018-04-22T04:11:02.959Z,17.50
2018-04-22T04:13:30.517Z,16.83
2018-04-22T04:15:58.762Z,17.80
2018-04-22T04:21:43.726Z,18.03
2018-04-22T04:27:19.703Z,17.57
2018-04-22T04:29:47.186Z,18.27
2018-04-22T04:32:14.670Z,18.30
2018-04-22T04:34:42.165Z,18.03
2018-04-22T04:37:09.727Z,17.47
2018-04-22T04:39:37.199Z,16.27
2018-04-22T04:42:04.701Z,17.13
2018-04-22T04:44:32.944Z,17.23
2018-04-22T04:47:00.539Z,15.80
2018-04-22T04:49:28.792Z,17.17
2018-04-22T04:51:56.280Z,16.63
2018-04-22T04:54:24.557Z,17.50
2018-04-22T04:56:52.035Z,16.83
2018-04-22T04:59:19.507Z,16.10
2018-04-22T05:01:47.023Z,16.10
2018-04-22T05:04:15.263Z,16.63
2018-04-22T05:06:42.775Z,16.93
2018-04-22T05:09:10.244Z,16.53
2018-04-22T05:11:37.741Z,16.37
2018-04-22T05:14:05.241Z,16.70
2018-04-22T05:16:33.486Z,16.97
2018-04-22T05:19:00.968Z,15.93
2018-04-22T05:21:29.229Z,17.80
2018-04-22T05:23:57.483Z,16.73
2018-04-22T05:26:25.064Z,17.53
2018-04-22T05:28:52.543Z,18.10
2018-04-22T05:31:20.037Z,17.50
2018-04-22T05:33:47.541Z,18.00
2018-04-22T05:36:15.801Z,17.63
2018-04-22T05:38:43.271Z,17.40
2018-04-22T05:41:10.748Z,17.33
2018-04-22T05:43:38.309Z,17.93
2018-04-22T05:46:05.816Z,16.37
2018-04-22T05:48:33.298Z,16.80
2018-04-22T05:51:00.863Z,17.00
2018-04-22T05:53:29.105Z,18.00
2018-04-22T05:55:56.621Z,17.80
2018-04-22T05:58:24.191Z,18.00
2018-04-22T06:00:51.672Z,16.83
2018-04-22T06:03:19.164Z,17.00
2018-04-22T06:05:46.656Z,18.70
2018-04-22T06:08:14.125Z,18.30
2018-04-22T06:10:41.681Z,18.83
2018-04-22T06:13:09.149Z,17.43
2018-04-22T06:15:36.639Z,17.93
2018-04-22T06:18:04.112Z,17.80
2018-04-22T06:20:32.366Z,17.80
2018-04-22T06:22:59.838Z,18.23
2018-04-22T06:25:27.354Z,17.83
2018-04-22T06:27:54.837Z,17.63
2018-04-22T06:30:22.326Z,18.03
2018-04-22T06:32:50.628Z,17.83
2018-04-22T06:35:18.135Z,17.60
2018-04-22T06:37:45.618Z,18.23
2018-04-22T06:40:13.971Z,17.40
2018-04-22T06:42:41.446Z,16.90
2018-04-22T06:45:09.672Z,17.23
2018-04-22T06:47:37.164Z,17.20
2018-04-22T06:50:04.648Z,16.90
2018-04-22T06:52:32.193Z,17.50
2018-04-22T06:54:59.665Z,17.90
2018-04-22T06:57:27.276Z,17.07
2018-04-22T06:59:56.251Z,17.33
2018-04-22T07:02:23.744Z,17.33
2018-04-22T07:04:51.982Z,17.93
2018-04-22T07:07:19.555Z,16.80
2018-04-22T07:09:47.115Z,16.97
2018-04-22T07:12:14.601Z,17.50
2018-04-22T07:14:42.844Z,17.60
2018-04-22T07:17:10.338Z,18.33
2018-04-22T07:19:38.594Z,18.97
2018-04-22T07:22:06.085Z,17.63
2018-04-22T07:24:33.556Z,17.73
2018-04-22T07:27:01.084Z,19.17
2018-04-22T07:29:29.344Z,19.23
2018-04-22T07:31:56.894Z,19.53
2018-04-22T07:34:24.367Z,19.07
2018-04-22T07:36:52.632Z,19.10
2018-04-22T07:39:20.871Z,20.03
2018-04-22T07:41:48.350Z,18.83
2018-04-22T07:44:15.819Z,20.23
2018-04-22T07:46:43.314Z,19.60
2018-04-22T07:49:10.771Z,19.30
2018-04-22T07:51:38.277Z,18.87
2018-04-22T07:54:05.780Z,19.77
2018-04-22T07:56:34.028Z,20.03
2018-04-22T07:59:02.277Z,19.87
2018-04-22T08:01:29.765Z,19.73
2018-04-22T08:03:57.253Z,21.60
2018-04-22T08:06:24.792Z,22.10
2018-04-22T08:08:53.027Z,21.27
2018-04-22T08:11:20.522Z,20.27
2018-04-22T08:13:48.789Z,20.63
2018-04-22T08:16:16.330Z,19.97
2018-04-22T08:18:43.774Z,20.40
2018-04-22T08:21:11.312Z,20.57
2018-04-22T08:23:38.787Z,20.60
2018-04-22T08:26:06.276Z,20.83
2018-04-22T08:28:34.615Z,20.07
2018-04-22T08:31:02.097Z,19.97
2018-04-22T08:33:29.574Z,18.93
2018-04-22T08:35:57.065Z,19.70
2018-04-22T08:38:24.529Z,19.13
2018-04-22T08:40:52.046Z,18.30
2018-04-22T08:43:19.512Z,20.67
2018-04-22T08:45:47.768Z,20.30
2018-04-22T08:48:15.339Z,20.93
2018-04-22T08:50:42.889Z,20.83
2018-04-22T08:53:10.340Z,21.07
2018-04-22T08:55:37.827Z,19.43
2018-04-22T08:58:06.095Z,19.87
2018-04-22T09:00:34.337Z,19.70
2018-04-22T09:03:01.835Z,19.07
2018-04-22T09:05:30.072Z,19.57
2018-04-22T09:07:57.557Z,19.87
2018-04-22T09:10:25.041Z,18.90
2018-04-22T09:12:52.519Z,19.97
2018-04-22T09:15:20.012Z,18.33
2018-04-22T09:17:47.503Z,18.90
2018-04-22T09:20:15.806Z,17.23
2018-04-22T09:22:43.323Z,18.73
2018-04-22T09:25:11.564Z,17.40
2018-04-22T09:27:39.056Z,16.13
2018-04-22T09:30:06.542Z,18.70
2018-04-22T09:32:34.056Z,23.60
2018-04-22T09:35:01.535Z,19.17
2018-04-22T09:37:29.848Z,18.63
2018-04-22T09:39:57.364Z,19.17
2018-04-22T09:42:25.641Z,18.83
2018-04-22T09:44:53.875Z,19.70
2018-04-22T09:47:21.360Z,18.93
2018-04-22T09:49:49.612Z,17.73
2018-04-22T09:52:17.099Z,17.83
2018-04-22T09:54:45.340Z,18.90
2018-04-22T09:57:12.913Z,18.90
2018-04-22T09:59:40.393Z,18.43
2018-04-22T10:02:14.343Z,16.97
2018-04-22T10:04:41.808Z,18.87
2018-04-22T10:07:09.320Z,18.80
2018-04-22T10:09:36.790Z,17.40
2018-04-22T10:12:04.279Z,17.67
2018-04-22T10:14:31.770Z,16.83
2018-04-22T10:17:00.022Z,17.60
2018-04-22T10:19:27.561Z,15.40
2018-04-22T10:21:55.071Z,16.17
2018-04-22T10:24:22.525Z,16.63
2018-04-22T10:26:50.830Z,18.60
2018-04-22T10:29:18.296Z,15.80
2018-04-22T10:31:45.794Z,15.40
2018-04-22T10:34:13.304Z,15.10
2018-04-22T10:36:40.865Z,15.90
2018-04-22T10:39:08.340Z,16.73
2018-04-22T10:41:35.828Z,16.40
2018-04-22T10:44:03.312Z,17.00
2018-04-22T10:46:31.574Z,15.83
2018-04-22T10:48:59.142Z,28.40
2018-04-22T10:51:27.423Z,23.63
2018-04-22T10:53:55.660Z,16.07
2018-04-22T10:56:23.197Z,24.47
2018-04-22T10:58:50.660Z,17.87
2018-04-22T11:01:19.138Z,15.97
2018-04-22T11:03:46.630Z,13.23
2018-04-22T11:06:14.120Z,11.70
2018-04-22T11:08:41.578Z,10.27
2018-04-22T11:11:09.067Z,20.03
2018-04-22T11:13:36.584Z,12.07
2018-04-22T11:16:04.843Z,9.90
2018-04-22T11:18:32.329Z,9.93
2018-04-22T11:20:59.858Z,10.60
2018-04-22T11:23:27.348Z,11.20
2018-04-22T11:25:54.833Z,11.90
2018-04-22T11:28:22.334Z,10.13
2018-04-22T11:30:49.827Z,9.80
2018-04-22T11:33:17.371Z,14.43
2018-04-22T11:35:44.854Z,11.47
2018-04-22T11:38:12.880Z,11.23
2018-04-22T11:40:41.121Z,10.60
2018-04-22T11:43:08.623Z,13.03
2018-04-22T11:45:36.876Z,12.00
2018-04-22T11:48:04.377Z,11.87
2018-04-22T11:50:31.853Z,12.73
2018-04-22T11:52:59.345Z,12.40
2018-04-22T11:55:27.575Z,12.00
2018-04-22T11:57:55.598Z,12.00
2018-04-22T12:00:23.093Z,12.43
2018-04-22T12:02:50.587Z,11.83
2018-04-22T12:05:18.083Z,11.10
2018-04-22T12:07:46.328Z,10.87
2018-04-22T12:10:13.846Z,9.63
2018-04-22T12:12:41.369Z,11.47
2018-04-22T12:15:09.602Z,11.30
2018-04-22T12:17:37.085Z,10.97
2018-04-22T12:20:04.555Z,11.13
2018-04-22T12:22:32.154Z,9.60
2018-04-22T12:24:59.631Z,10.07
2018-04-22T12:27:27.149Z,9.77
2018-04-22T12:29:55.397Z,10.97
2018-04-22T12:32:22.961Z,10.33
2018-04-22T12:34:50.532Z,9.53
2018-04-22T12:37:18.784Z,9.60
2018-04-22T12:39:46.260Z,8.80
2018-04-22T12:42:13.752Z,9.40
2018-04-22T12:44:41.221Z,11.30
2018-04-22T12:47:08.728Z,12.23
2018-04-22T12:49:36.196Z,11.17
2018-04-22T12:52:04.451Z,9.47
2018-04-22T12:54:31.945Z,8.63
2018-04-22T12:57:00.324Z,8.97
2018-04-22T12:59:29.440Z,9.43
2018-04-22T13:01:56.952Z,9.77
2018-04-22T13:04:24.411Z,8.37
2018-04-22T13:06:52.729Z,7.73
2018-04-22T13:09:20.253Z,7.27
2018-04-22T13:11:48.517Z,7.10
2018-04-22T13:14:15.983Z,7.70
2018-04-22T13:16:44.248Z,11.30
2018-04-22T13:19:11.863Z,9.27
2018-04-22T13:21:40.232Z,9.07
2018-04-22T13:24:07.727Z,7.80
2018-04-22T13:26:35.187Z,8.40
2018-04-22T13:29:02.680Z,8.47
2018-04-22T13:31:30.915Z,7.90
2018-04-22T13:33:58.415Z,8.37
2018-04-22T13:36:25.893Z,8.27
2018-04-22T13:38:53.377Z,7.87
2018-04-22T13:41:20.913Z,8.83
2018-04-22T13:43:48.401Z,8.83
2018-04-22T13:46:15.928Z,7.70
2018-04-22T13:48:43.452Z,7.70
2018-04-22T13:51:11.865Z,7.83
2018-04-22T13:53:39.566Z,7.07
2018-04-22T13:56:07.044Z,7.20
2018-04-22T13:58:34.534Z,6.50
2018-04-22T14:01:02.042Z,6.67
2018-04-22T14:03:29.672Z,7.13
2018-04-22T14:05:57.152Z,6.90
2018-04-22T14:08:24.747Z,7.17
2018-04-22T14:10:52.985Z,7.07
2018-04-22T14:13:20.475Z,7.93
2018-04-22T14:15:48.067Z,7.00
2018-04-22T14:18:15.703Z,6.73
2018-04-22T14:20:43.978Z,8.17
2018-04-22T14:23:12.239Z,9.80
2018-04-22T14:25:39.702Z,7.83
2018-04-22T14:28:08.031Z,6.90
2018-04-22T14:30:35.498Z,5.70
2018-04-22T14:33:02.994Z,6.80
2018-04-22T14:35:31.232Z,6.97
2018-04-22T14:37:58.721Z,6.50
2018-04-22T14:40:27.019Z,6.70
2018-04-22T14:42:55.268Z,8.20
2018-04-22T14:45:34.578Z,9.90
2018-04-22T14:48:02.177Z,7.70
2018-04-22T14:50:30.438Z,8.90
2018-04-22T14:52:57.924Z,7.67
2018-04-22T14:55:25.403Z,8.00
2018-04-22T14:57:52.993Z,5.73
2018-04-22T15:00:20.483Z,5.67
2018-04-22T15:02:48.764Z,5.70
2018-04-22T15:05:17.084Z,6.13
2018-04-22T15:07:45.316Z,5.37
2018-04-22T15:10:13.588Z,5.47
2018-04-22T15:12:41.886Z,3.80
2018-04-22T15:15:09.354Z,4.30
2018-04-22T15:17:36.840Z,4.13
2018-04-22T15:20:04.388Z,6.17
2018-04-22T15:22:32.032Z,4.43
2018-04-22T15:24:59.554Z,6.00
2018-04-22T15:27:27.006Z,5.30
2018-04-22T15:29:54.496Z,7.97
2018-04-22T15:32:21.976Z,6.05
2018-04-22T15:34:49.457Z,6.12
2018-04-22T15:37:16.918Z,5.53
2018-04-22T15:39:44.427Z,3.30
2018-04-22T15:42:12.000Z,3.28
2018-04-22T15:44:39.478Z,3.22
2018-04-22T15:47:06.951Z,3.20
2018-04-22T15:49:34.448Z,2.85
2018-04-22T15:52:02.677Z,3.92
2018-04-22T15:54:30.168Z,3.10
2018-04-22T15:56:58.441Z,3.42
2018-04-22T15:59:26.709Z,2.95
2018-04-22T16:01:54.196Z,2.97
2018-04-22T16:04:21.711Z,2.80
2018-04-22T16:06:49.231Z,3.05
2018-04-22T16:09:16.707Z,2.65
2018-04-22T16:11:44.207Z,2.90
2018-04-22T16:14:12.456Z,2.87
2018-04-22T16:16:39.914Z,2.78
2018-04-22T16:19:07.498Z,3.40
2018-04-22T16:21:35.767Z,3.60
2018-04-22T16:24:04.032Z,3.17
2018-04-22T16:26:31.605Z,4.00
2018-04-22T16:28:59.105Z,3.50
2018-04-22T16:31:26.563Z,3.80
2018-04-22T16:33:54.045Z,3.42
2018-04-22T16:36:21.509Z,3.50
2018-04-22T16:38:48.988Z,3.17
2018-04-22T16:41:16.467Z,3.07
2018-04-22T16:43:44.732Z,3.10
2018-04-22T16:46:12.970Z,3.13
2018-04-22T16:48:40.452Z,3.67
2018-04-22T16:51:07.982Z,3.57
2018-04-22T16:53:36.224Z,3.33
2018-04-22T16:56:03.694Z,3.13
2018-04-22T16:58:31.179Z,3.00
2018-04-22T17:00:58.650Z,2.80
2018-04-22T17:03:26.214Z,3.37
2018-04-22T17:05:53.849Z,3.40
2018-04-22T17:08:21.293Z,2.73
2018-04-22T17:10:48.767Z,3.70
2018-04-22T17:13:16.264Z,3.20
2018-04-22T17:15:44.499Z,3.03
2018-04-22T17:18:12.108Z,3.50
2018-04-22T17:20:39.576Z,4.00
2018-04-22T17:23:07.081Z,9.93
2018-04-22T17:25:34.614Z,4.40
2018-04-22T17:28:02.128Z,3.33
2018-04-22T17:30:30.376Z,3.20
2018-04-22T17:32:57.924Z,3.57
2018-04-22T17:35:25.422Z,3.50
2018-04-22T17:37:53.676Z,3.70
2018-04-22T17:40:21.415Z,3.27
2018-04-22T17:42:48.883Z,3.23
2018-04-22T17:45:16.362Z,3.17
2018-04-22T17:47:43.852Z,4.07
2018-04-22T17:50:11.376Z,3.70
2018-04-22T17:52:38.947Z,6.00
2018-04-22T17:55:07.204Z,6.90
2018-04-22T17:57:34.688Z,4.00
2018-04-22T18:00:02.928Z,3.83
2018-04-22T18:02:30.417Z,3.60
2018-04-22T18:04:58.676Z,3.50
2018-04-22T18:07:26.149Z,3.30
2018-04-22T18:09:54.407Z,3.23
2018-04-22T18:12:21.883Z,3.30
2018-04-22T18:14:50.160Z,3.17
2018-04-22T18:17:18.387Z,3.63
2018-04-22T18:19:45.905Z,3.00
2018-04-22T18:22:13.405Z,3.23
2018-04-22T18:24:40.912Z,3.30
2018-04-22T18:27:09.157Z,3.47
2018-04-22T18:29:36.873Z,3.27
2018-04-22T18:32:04.392Z,3.10
2018-04-22T18:34:31.879Z,3.07
2018-04-22T18:36:59.353Z,3.27
2018-04-22T18:39:26.845Z,3.20
2018-04-22T18:41:54.314Z,3.57
2018-04-22T18:44:21.892Z,2.90
2018-04-22T18:46:50.141Z,3.23
2018-04-22T18:49:17.640Z,3.83
2018-04-22T18:51:45.873Z,3.87
2018-04-22T18:54:13.390Z,3.23
2018-04-22T18:56:40.855Z,3.27
2018-04-22T18:59:09.123Z,3.30
2018-04-22T19:01:36.718Z,3.30
2018-04-22T19:04:04.200Z,3.13
2018-04-22T19:06:31.655Z,3.20
2018-04-22T19:08:59.139Z,3.30
2018-04-22T19:11:26.627Z,3.27
2018-04-22T19:13:54.880Z,3.07
2018-04-22T19:16:22.478Z,3.57
2018-04-22T19:18:49.985Z,3.43
2018-04-22T19:21:17.453Z,3.63
2018-04-22T19:23:44.943Z,3.10
2018-04-22T19:26:13.197Z,3.27
2018-04-22T19:28:40.728Z,3.23
2018-04-22T19:31:08.229Z,4.93
2018-04-22T19:33:36.486Z,4.17
2018-04-22T19:36:03.951Z,3.30
2018-04-22T19:38:31.459Z,3.10
2018-04-22T19:40:58.929Z,3.30
2018-04-22T19:43:26.468Z,3.10
2018-04-22T19:45:53.943Z,3.93
2018-04-22T19:48:21.446Z,3.53
2018-04-22T19:50:49.707Z,3.47
2018-04-22T19:53:17.172Z,3.50
2018-04-22T19:55:44.653Z,3.97
2018-04-22T19:58:12.126Z,3.20
2018-04-22T20:00:39.603Z,3.33
2018-04-22T20:03:07.060Z,3.57
2018-04-22T20:05:34.552Z,5.57
2018-04-22T20:08:02.028Z,5.87
2018-04-22T20:10:30.332Z,4.33
2018-04-22T20:12:57.804Z,5.43
2018-04-22T20:15:25.305Z,5.40
2018-04-22T20:17:52.803Z,4.27
2018-04-22T20:20:20.369Z,4.07
2018-04-22T20:22:47.928Z,3.80
2018-04-22T20:25:15.439Z,19.07
2018-04-22T20:27:42.932Z,11.60
2018-04-22T20:30:10.425Z,4.93
2018-04-22T20:32:37.894Z,4.60
2018-04-22T20:35:05.375Z,3.70
2018-04-22T20:37:33.627Z,3.43
2018-04-22T20:40:01.145Z,3.90
2018-04-22T20:42:28.685Z,3.23
2018-04-22T20:44:56.158Z,3.70
2018-04-22T20:47:24.580Z,3.70
2018-04-22T20:49:52.074Z,3.47
2018-04-22T20:52:20.307Z,4.57
2018-04-22T20:54:47.830Z,4.60
2018-04-22T20:57:15.339Z,4.10
2018-04-22T20:59:43.586Z,3.77
2018-04-22T21:02:11.064Z,3.87
2018-04-22T21:04:38.536Z,3.37
2018-04-22T21:07:05.996Z,3.83
2018-04-22T21:09:33.489Z,3.63
2018-04-22T21:12:01.044Z,3.67
2018-04-22T21:14:28.520Z,3.50
2018-04-22T21:16:55.983Z,3.73
2018-04-22T21:19:23.573Z,4.17
2018-04-22T21:21:51.042Z,3.90
2018-04-22T21:24:18.548Z,4.27
2018-04-22T21:26:46.011Z,4.53
2018-04-22T21:29:13.560Z,3.77
2018-04-22T21:31:41.024Z,4.07
2018-04-22T21:34:08.544Z,4.30
2018-04-22T21:36:36.780Z,4.23
2018-04-22T21:39:05.027Z,4.13
2018-04-22T21:41:32.493Z,4.50
2018-04-22T21:44:00.005Z,3.77
2018-04-22T21:46:28.252Z,4.50
2018-04-22T21:48:55.775Z,4.50
2018-04-22T21:51:23.261Z,4.30
2018-04-22T21:53:50.733Z,3.77
2018-04-22T21:56:18.251Z,3.83
2018-04-22T21:58:45.732Z,4.23
2018-04-22T22:01:13.216Z,4.20
2018-04-22T22:03:40.796Z,4.40
2018-04-22T22:06:09.307Z,4.07
2018-04-22T22:08:36.775Z,4.23
2018-04-22T22:11:04.280Z,4.50
2018-04-22T22:13:31.926Z,4.50
2018-04-22T22:15:59.435Z,4.23
2018-04-22T22:18:26.921Z,4.47
2018-04-22T22:20:54.395Z,4.80
2018-04-22T22:23:21.876Z,7.07
2018-04-22T22:25:49.390Z,13.13
2018-04-22T22:28:16.902Z,6.63
2018-04-22T22:30:45.145Z,4.97
2018-04-22T22:33:12.627Z,4.70
2018-04-22T22:35:40.891Z,4.43
2018-04-22T22:38:09.152Z,4.87
2018-04-22T22:40:36.609Z,4.50
2018-04-22T22:43:04.079Z,4.83
2018-04-22T22:45:31.564Z,4.43
2018-04-22T22:47:59.038Z,4.73
2018-04-22T22:50:26.523Z,4.90
2018-04-22T22:52:54.026Z,4.83
2018-04-22T22:55:22.310Z,4.30
2018-04-22T22:57:50.575Z,4.33
2018-04-22T23:00:22.520Z,4.10
2018-04-22T23:02:50.061Z,4.90
2018-04-22T23:05:17.552Z,4.30
2018-04-22T23:07:45.780Z,4.70
2018-04-22T23:10:19.315Z,4.70
2018-04-22T23:12:46.794Z,3.97
2018-04-22T23:15:14.287Z,4.60
2018-04-22T23:17:41.752Z,4.73
2018-04-22T23:20:09.268Z,4.70
2018-04-22T23:22:36.738Z,4.47
2018-04-22T23:25:04.220Z,4.57
2018-04-22T23:27:31.759Z,5.30
2018-04-22T23:29:59.226Z,4.73
2018-04-22T23:32:26.783Z,4.50
2018-04-22T23:34:55.045Z,4.57
2018-04-22T23:37:22.591Z,5.23
2018-04-22T23:39:50.884Z,4.90
2018-04-22T23:42:18.420Z,4.67
2018-04-22T23:44:46.652Z,4.83
2018-04-22T23:47:14.155Z,4.80
2018-04-22T23:49:42.387Z,4.87
2018-04-22T23:52:09.981Z,4.83
2018-04-22T23:54:38.209Z,5.30
2018-04-22T23:57:05.728Z,5.07
2018-04-22T23:59:33.942Z,4.97
